Flight Track Log - Related Links

Times and Time Zones

All times are in EDT time to prevent confusion due to time zone crossing. See the DCM315 flight status page for this flight to view local times or setup timezone preferences in your user account.


Time Position Orientation Groundspeed Altitude Reporting Facility
EDT Latitude Longitude Course Direction KTS MPH feet Rate Location/Type
Wed 03:34:54 PM 44.2022 -86.1867 163° South 210 242 5,800  Level Minneapolis Center
Wed 03:35:56 PM 44.1244 -86.1611 167° South 283 326 8,900 3,463 Climbing Minneapolis Center
Wed 03:36:57 PM 44.0197 -86.1253 166° South 338 389 12,900 3,902 Climbing Minneapolis Center
Wed 03:37:59 PM 43.9133 -86.0911 167° South 384 442 16,900 3,659 Climbing Minneapolis Center
Wed 03:39:00 PM 43.8036 -86.0556 167° South 400 460 20,400 3,024 Climbing Minneapolis Center
Wed 03:40:00 PM 44.2323 -86.2301 163° South  Level FlightAware Approximate
Wed 03:40:02 PM 43.6928 -86.0194 167° South 404 465 23,100  Level Minneapolis Center
Wed 03:41:06 PM 43.5792 -85.9839 167° South 420 483 25,400 1,381 Climbing Chicago Center
Wed 03:42:08 PM 43.4597 -85.9458 167° South 433 498 26,000 290 Climbing Chicago Center
Wed 03:43:10 PM 43.3150 -85.8992 167° South 443 510 26,000  Level Chicago Center
Wed 03:44:11 PM 43.1894 -85.8603 167° South 457 526 26,000 537 Level Chicago Center
Wed 03:45:13 PM 43.0628 -85.8225 168° South 456 525 27,100 1,210 Climbing Chicago Center
Wed 03:46:15 PM 42.9328 -85.7806 167° South 467 537 28,500 1,500 Climbing Chicago Center
Wed 03:47:17 PM 42.8056 -85.7406 167° South 468 539 30,200 1,415 Climbing Chicago Center
Wed 03:48:18 PM 42.6803 -85.7017 167° South 463 533 31,400 1,073 Climbing Chicago Center
Wed 03:49:20 PM 42.5550 -85.6631 167° South 462 532 32,400 774 Climbing Chicago Center
Wed 03:50:22 PM 42.4294 -85.6239 167° South 462 532 33,000 290 Climbing Chicago Center
Wed 03:51:24 PM 42.3031 -85.5856 167° South 464 534 33,000  Level Chicago Center
Wed 03:52:25 PM 42.1739 -85.5467 167° South 476 548 33,000  Level Chicago Center
Wed 03:53:27 PM 42.0203 -85.4994 167° South 474 545 33,000  Level Chicago Center
Wed 03:54:29 PM 41.9028 -85.4636 167° South 475 547 33,000  Level Chicago Center
Wed 03:55:31 PM 41.7728 -85.4239 167° South 479 551 33,000  Level Chicago Center
Wed 03:56:32 PM 41.6319 -85.3831 168° South 475 547 33,000  Level Chicago Center
Wed 03:57:34 PM 41.5053 -85.3436 167° South 473 544 33,000  Level Chicago Center
Wed 03:58:36 PM 41.3753 -85.3036 167° South 475 547 33,000  Level Chicago Center
Wed 03:59:38 PM 41.2461 -85.2653 167° South 477 549 33,000  Level Chicago Center
Wed 04:00:40 PM 41.0906 -85.2197 168° South 477 549 33,000  Level Chicago Center
Wed 04:01:41 PM 40.9614 -85.1806 167° South 477 549 33,000  Level Chicago Center
Wed 04:02:43 PM 40.8333 -85.1308 164° South 477 549 33,000  Level Chicago Center
Wed 04:03:45 PM 40.7053 -85.0792 163° South 480 552 33,000  Level Chicago Center
Wed 04:04:47 PM 40.5861 -85.0369 165° South 477 549 33,000  Level Chicago Center
Wed 04:05:48 PM 40.4333 -84.9769 163° South 476 548 33,000  Level Chicago Center
Wed 04:06:50 PM 40.3050 -84.9283 164° South 478 550 33,000  Level Chicago Center
Wed 04:07:52 PM 40.1775 -84.8789 163° South 477 549 33,000  Level Chicago Center
Wed 04:08:54 PM 40.0503 -84.8300 164° South 475 547 33,000  Level Chicago Center
Wed 04:09:56 PM 39.9217 -84.7819 164° South 477 549 33,000  Level Chicago Center
Wed 04:10:57 PM 39.7956 -84.7331 163° South 475 547 33,000  Level Chicago Center
Wed 04:11:59 PM 39.6692 -84.6856 164° South 474 545 33,000  Level Chicago Center
Wed 04:13:17 PM 39.5042 -84.6261 164° South 474 545 33,000  Level Indianapolis Center
Wed 04:14:18 PM 39.3531 -84.5692 164° South 474 545 33,000  Level Indianapolis Center
Wed 04:15:20 PM 39.2261 -84.5228 164° South 474 545 33,000  Level Indianapolis Center
Wed 04:16:22 PM 39.1011 -84.4767 164° South 473 544 33,000  Level Indianapolis Center
Wed 04:17:24 PM 38.9750 -84.4303 164° South 473 544 33,000  Level Indianapolis Center
Wed 04:18:26 PM 38.8467 -84.3833 164° South 476 548 33,000  Level Indianapolis Center
Wed 04:19:28 PM 38.7181 -84.3372 164° South 478 550 33,000  Level Indianapolis Center
Wed 04:20:30 PM 38.5656 -84.2922 167° South 476 548 33,000  Level Indianapolis Center
Wed 04:21:31 PM 38.4361 -84.2775 175° South 471 542 33,000  Level Indianapolis Center
Wed 04:22:33 PM 38.3078 -84.2553 172° South 467 537 33,000  Level Indianapolis Center
Wed 04:23:35 PM 38.1794 -84.2322 172° South 467 537 33,000  Level Indianapolis Center
Wed 04:24:37 PM 38.0328 -84.2047 172° South 460 529 33,000  Level Indianapolis Center
Wed 04:25:39 PM 37.9056 -84.1833 172° South 460 529 33,000  Level Indianapolis Center
Wed 04:26:40 PM 37.7783 -84.1614 172° South 461 531 33,000  Level Indianapolis Center
Wed 04:27:42 PM 37.6528 -84.1408 173° South 460 529 33,000  Level Indianapolis Center
Wed 04:28:44 PM 37.5256 -84.1189 172° South 460 529 33,000  Level Indianapolis Center
Wed 04:29:46 PM 37.3986 -84.0992 173° South 460 529 33,000  Level Indianapolis Center
Wed 04:30:48 PM 37.2503 -84.0739 172° South 460 529 33,000  Level Indianapolis Center
Wed 04:31:50 PM 37.1225 -84.0531 173° South 461 531 33,000  Level Indianapolis Center
Wed 04:32:51 PM 36.9956 -84.0319 172° South 461 531 33,000  Level Indianapolis Center
Wed 04:33:53 PM 36.8686 -84.0106 172° South 461 531 33,000  Level Indianapolis Center
Wed 04:34:55 PM 36.7203 -83.9869 173° South 461 531 33,000  Level Indianapolis Center
Wed 04:35:57 PM 36.5939 -83.9667 173° South 461 531 33,000  Level Indianapolis Center
Wed 04:36:59 PM 36.4653 -83.9453 172° South 461 531 33,000  Level Indianapolis Center
Wed 04:38:01 PM 36.3389 -83.9242 172° South 460 529 33,000  Level Indianapolis Center
Wed 04:39:03 PM 36.2125 -83.9044 173° South 460 529 33,000  Level Indianapolis Center
Wed 04:40:04 PM 36.0850 -83.8836 172° South 459 528 33,000  Level Indianapolis Center
Wed 04:40:34 PM 36.0103 -83.8744 174° South 464 534 33,000  Level Atlanta Center
Wed 04:41:34 PM 35.8808 -83.8542 173° South 464 534 33,000  Level Atlanta Center
Wed 04:42:34 PM 35.7556 -83.8314 172° South 464 534 33,000  Level Atlanta Center
Wed 04:43:34 PM 35.6264 -83.8139 174° South 464 534 33,000  Level Atlanta Center
Wed 04:44:34 PM 35.5261 -83.7964 172° South 464 534 33,000  Level Atlanta Center
Wed 04:45:34 PM 35.3864 -83.7764 173° South 464 534 33,000 150 Level Atlanta Center
Wed 04:46:34 PM 35.2569 -83.7564 173° South 464 534 33,300 650 Climbing Atlanta Center
Wed 04:47:34 PM 35.1336 -83.7339 172° South 464 534 34,300 850 Climbing Atlanta Center
Wed 04:48:34 PM 35.0125 -83.7167 173° South 453 521 35,000 350 Climbing Atlanta Center
Wed 04:49:34 PM 34.8769 -83.6894 171° South 448 516 35,000  Level Atlanta Center
Wed 04:50:34 PM 34.7494 -83.6722 174° South 458 527 35,000  Level Atlanta Center
Wed 04:51:34 PM 34.6200 -83.6500 172° South 466 536 35,000  Level Atlanta Center
Wed 04:52:34 PM 34.4886 -83.6331 174° South 466 536 35,000  Level Atlanta Center
Wed 04:53:34 PM 34.3736 -83.6133 172° South 466 536 35,000  Level Atlanta Center
Wed 04:54:34 PM 34.2464 -83.5964 174° South 466 536 35,000  Level Atlanta Center
Wed 04:55:34 PM 34.1169 -83.5744 172° South 466 536 35,000  Level Atlanta Center
Wed 04:56:34 PM 33.9833 -83.5528 172° South 466 536 35,000  Level Atlanta Center
Wed 04:57:34 PM 33.8453 -83.5336 173° South 466 536 35,000  Level Atlanta Center
Wed 04:58:34 PM 33.7139 -83.5144 173° South 466 536 35,000  Level Atlanta Center
Wed 04:59:34 PM 33.5844 -83.4978 174° South 471 542 35,000  Level Atlanta Center
Wed 05:00:34 PM 33.4569 -83.4761 172° South 471 542 35,000  Level Atlanta Center
Wed 05:01:34 PM 33.3233 -83.4594 174° South 471 542 35,000  Level Atlanta Center
Wed 05:02:34 PM 33.1936 -83.4306 169° South 481 554 35,000  Level Atlanta Center
Wed 05:03:34 PM 33.0619 -83.3844 164° South 488 562 35,000 -100 Level Atlanta Center
Wed 05:04:34 PM 32.9469 -83.3458 164° South 488 562 34,800 -500 Descending Atlanta Center
Wed 05:05:34 PM 32.8194 -83.3022 164° South 488 562 34,000 -255 Descending Atlanta Center
Wed 05:07:42 PM 32.5378 -83.2081 164° South 497 572 34,000  Level Jacksonville Center
Wed 05:08:42 PM 32.3981 -83.1608 164° South 487 560 34,000  Level Jacksonville Center
Wed 05:09:42 PM 32.2644 -83.1161 164° South 487 560 34,000  Level Jacksonville Center
Wed 05:10:42 PM 32.1331 -83.0742 165° South 492 566 34,000  Level Jacksonville Center
Wed 05:11:42 PM 32.0014 -83.0322 165° South 492 566 34,000  Level Jacksonville Center
Wed 05:12:42 PM 31.8681 -82.9881 164° South 492 566 34,000  Level Jacksonville Center
Wed 05:13:42 PM 31.7364 -82.9439 164° South 487 560 34,000  Level Jacksonville Center
Wed 05:14:42 PM 31.6050 -82.9022 165° South 487 560 34,000  Level Jacksonville Center
Wed 05:15:42 PM 31.4756 -82.8583 164° South 492 566 34,000  Level Jacksonville Center
Wed 05:16:42 PM 31.3439 -82.8197 166° South 487 560 34,000  Level Jacksonville Center
Wed 05:17:42 PM 31.2144 -82.7761 164° South 487 560 34,000  Level Jacksonville Center
Wed 05:18:42 PM 31.1078 -82.7444 166° South 487 560 34,000  Level Jacksonville Center
Wed 05:19:42 PM 30.9636 -82.7011 166° South 487 560 34,000  Level Jacksonville Center
Wed 05:20:42 PM 30.8342 -82.6603 165° South 487 560 34,000  Level Jacksonville Center
Wed 05:21:42 PM 30.7047 -82.6172 164° South 487 560 34,000 -300 Level Jacksonville Center
Wed 05:22:42 PM 30.5753 -82.5764 165° South 487 560 33,400 -900 Descending Jacksonville Center
Wed 05:23:42 PM 30.4456 -82.5408 167° South 487 560 32,200 -1,250 Descending Jacksonville Center
Wed 05:24:42 PM 30.3181 -82.4811 158° South 482 555 30,900 -1,300 Descending Jacksonville Center
Wed 05:25:42 PM 30.2092 -82.3733 139° Southeast 493 567 29,600 -1,400 Descending Jacksonville Center
Wed 05:26:42 PM 30.0792 -82.2686 145° Southeast 523 602 28,100 -1,350 Descending Jacksonville Center
Wed 05:27:42 PM 29.9558 -82.2550 175° South 468 539 26,900 -550 Descending Jacksonville Center
Wed 05:28:42 PM 29.8581 -82.3033 203° Southwest 385 443 27,000 50 Climbing Jacksonville Center
Wed 05:29:42 PM 29.7664 -82.3686 212° Southwest 376 433 27,000  Level Jacksonville Center
Wed 05:30:42 PM 29.6517 -82.3739 182° South 389 448 27,000 -50 Level Jacksonville Center
Wed 05:31:42 PM 29.5325 -82.3458 168° South 415 478 26,900 -550 Descending Jacksonville Center
Wed 05:32:42 PM 29.4133 -82.3203 169° South 432 497 25,900 -1,600 Descending Jacksonville Center
Wed 05:33:42 PM 29.2964 -82.2997 171° South 432 497 23,700 -2,100 Descending Jacksonville Center
Wed 05:34:42 PM 29.1961 -82.2764 169° South 425 489 21,700 -2,200 Descending Jacksonville Center
Wed 05:35:42 PM 29.0856 -82.2606 173° South 413 475 19,300 -2,500 Descending Jacksonville Center
Wed 05:36:42 PM 28.9811 -82.2611 180° South 394 453 16,700 -2,550 Descending Jacksonville Center
Wed 05:37:42 PM 28.8683 -82.2642 181° South 381 438 14,200 -1,471 Descending Jacksonville Center
Wed 05:39:17 PM 28.7000 -82.2667 181° South 357 411 12,900 -890 Descending Tampa TRACON
Wed 05:40:17 PM 28.6000 -82.2500 172° South 361 415 11,900 -1,100 Descending Tampa TRACON
Wed 05:41:17 PM 28.5167 -82.2500 180° South 349 402 10,700 -950 Descending Tampa TRACON
Wed 05:42:17 PM 28.4500 -82.3167 221° Southwest 309 356 10,000 -400 Descending Tampa TRACON
Wed 05:43:17 PM 28.4500 -82.4167 270° West 297 342 9,900 -694 Descending Tampa TRACON
Wed 05:44:18 PM 28.4500 -82.5000 270° West 244 281 8,600 -1,409 Descending Tampa TRACON
Wed 05:45:12 PM 28.4333 -82.5667 254° West 229 264 7,200 -1,632 Descending Tampa TRACON
Wed 05:46:12 PM 28.4000 -82.6167 233° Southwest 225 259 5,500 -1,600 Descending Tampa TRACON
Wed 05:47:12 PM 28.3667 -82.6667 233° Southwest 223 257 4,000 -750 Descending Tampa TRACON
Wed 05:48:12 PM 28.3167 -82.7167 221° Southwest 217 250 4,000  Level Tampa TRACON
Wed 05:49:11 PM 28.2667 -82.7667 221° Southwest 239 275 4,000  Level Tampa TRACON
Wed 05:50:12 PM 28.2000 -82.8000 204° Southwest 250 288 4,000  Level Tampa TRACON
Wed 05:51:12 PM 28.1333 -82.8000 180° South 265 305 4,000  Level Tampa TRACON
Wed 05:52:06 PM 28.0667 -82.8000 180° South 256 295 4,000  Level Tampa TRACON
Wed 05:53:06 PM 28.0000 -82.7833 168° South 245 282 4,000 -158 Level Tampa TRACON
Wed 05:54:00 PM 27.9333 -82.7833 180° South 244 281 3,700 -800 Descending Tampa TRACON
Wed 05:55:06 PM 27.8667 -82.7667 168° South 240 276 2,400 -909 Descending Tampa TRACON
Wed 05:56:12 PM 27.8167 -82.7333 149° Southeast 211 243 1,700 -409 Descending Tampa TRACON
Wed 05:57:18 PM 27.8333 -82.6833 69° East 154 177 1,500 -350 Descending Tampa TRACON
Wed 05:58:12 PM 27.8667 -82.6833 360° North 117 135 1,000 -632 Descending Tampa TRACON
Wed 05:59:12 PM 27.9000 -82.6833 360° North 110 127 300 -700 Descending Tampa TRACON
Wed 06:01:00 PM 27.9100 -82.6875 North  Level Estimated

Login

Don't have an account? Register now (free) for customized features, flight alerts, and more!